createdAt,value
2017-12-21T00:00:55.832Z,7.63
2017-12-21T00:02:00.300Z,7.67
2017-12-21T00:03:04.796Z,7.66
2017-12-21T00:04:09.223Z,7.65
2017-12-21T00:05:14.028Z,7.70
2017-12-21T00:06:21.241Z,7.73
2017-12-21T00:07:25.660Z,7.74
2017-12-21T00:08:30.931Z,7.69
2017-12-21T00:09:36.515Z,7.69
2017-12-21T00:10:41.060Z,7.70
2017-12-21T00:11:45.613Z,7.69
2017-12-21T00:12:50.100Z,7.66
2017-12-21T00:13:54.584Z,7.64
2017-12-21T00:14:59.076Z,7.75
2017-12-21T00:16:03.677Z,7.83
2017-12-21T00:17:08.497Z,7.78
2017-12-21T00:18:13.039Z,7.78
2017-12-21T00:19:17.483Z,7.76
2017-12-21T00:20:22.006Z,7.75
2017-12-21T00:21:26.569Z,7.68
2017-12-21T00:22:40.883Z,7.64
2017-12-21T00:23:45.353Z,7.73
2017-12-21T00:24:49.924Z,7.80
2017-12-21T00:25:55.232Z,7.78
2017-12-21T00:26:59.846Z,7.86
2017-12-21T00:28:04.356Z,7.85
2017-12-21T00:29:09.188Z,7.81
2017-12-21T00:30:16.609Z,7.79
2017-12-21T00:31:21.055Z,7.76
2017-12-21T00:32:25.624Z,7.79
2017-12-21T00:33:30.900Z,7.77
2017-12-21T00:34:36.254Z,7.80
2017-12-21T00:35:41.081Z,7.82
2017-12-21T00:36:45.632Z,7.81
2017-12-21T00:37:50.140Z,7.74
2017-12-21T00:38:55.269Z,7.68
2017-12-21T00:39:59.768Z,7.65
2017-12-21T00:41:04.221Z,7.72
2017-12-21T00:42:08.722Z,7.74
2017-12-21T00:43:13.740Z,7.72
2017-12-21T00:44:18.311Z,7.71
2017-12-21T00:47:46.573Z,7.70
2017-12-21T00:48:51.968Z,7.74
2017-12-21T00:49:57.587Z,7.72
2017-12-21T00:51:02.695Z,7.69
2017-12-21T00:52:07.408Z,7.74
2017-12-21T00:53:12.406Z,7.78
2017-12-21T00:54:19.205Z,7.72
2017-12-21T00:55:23.967Z,7.76
2017-12-21T00:56:29.440Z,7.71
2017-12-21T00:57:34.579Z,7.69
2017-12-21T00:58:40.254Z,7.70
2017-12-21T00:59:45.278Z,7.64
2017-12-21T01:00:50.570Z,7.64
2017-12-21T01:01:55.256Z,7.65
2017-12-21T01:02:59.996Z,7.64
2017-12-21T01:04:04.699Z,7.62
2017-12-21T01:05:09.947Z,7.58
2017-12-21T01:06:15.066Z,7.53
2017-12-21T01:07:19.624Z,7.53
2017-12-21T01:08:24.802Z,7.55
2017-12-21T01:09:30.072Z,7.60
2017-12-21T01:10:35.227Z,7.63
2017-12-21T01:11:41.063Z,7.64
2017-12-21T01:12:46.729Z,7.72
2017-12-21T01:13:51.258Z,7.67
2017-12-21T01:14:57.857Z,7.65
2017-12-21T01:16:03.645Z,7.64
2017-12-21T01:17:08.693Z,7.70
2017-12-21T01:18:14.225Z,7.75
2017-12-21T01:19:20.057Z,7.84
2017-12-21T01:20:24.845Z,7.83
2017-12-21T01:21:29.931Z,7.84
2017-12-21T01:22:36.043Z,7.80
2017-12-21T01:23:41.706Z,7.69
2017-12-21T01:24:49.607Z,7.71
2017-12-21T01:25:54.895Z,7.71
2017-12-21T01:26:59.458Z,7.85
2017-12-21T01:28:04.112Z,7.79
2017-12-21T01:29:09.136Z,7.74
2017-12-21T01:30:15.356Z,7.85
2017-12-21T01:31:20.198Z,7.89
2017-12-21T01:32:25.553Z,7.94
2017-12-21T01:33:30.617Z,7.89
2017-12-21T01:34:36.143Z,7.88
2017-12-21T01:35:41.327Z,7.81
2017-12-21T01:36:46.697Z,7.79
2017-12-21T01:37:51.687Z,7.85
2017-12-21T01:38:56.881Z,7.82
2017-12-21T01:40:02.347Z,7.88
2017-12-21T01:41:07.650Z,7.85
2017-12-21T01:42:12.908Z,7.77
2017-12-21T01:43:17.682Z,7.82
2017-12-21T01:44:23.137Z,7.85
2017-12-21T01:45:28.034Z,7.91
2017-12-21T01:46:34.774Z,8.00
2017-12-21T01:47:40.526Z,7.95
2017-12-21T01:48:45.420Z,7.91
2017-12-21T01:49:50.134Z,7.96
2017-12-21T01:50:54.716Z,7.95
2017-12-21T01:51:59.458Z,7.88
2017-12-21T01:53:04.176Z,7.91
2017-12-21T01:54:09.630Z,7.97
2017-12-21T01:55:14.610Z,7.97
2017-12-21T01:56:19.861Z,7.98
2017-12-21T01:57:24.799Z,8.00
2017-12-21T01:58:29.663Z,7.95
2017-12-21T01:59:35.530Z,8.01
2017-12-21T02:00:40.588Z,8.01
2017-12-21T02:01:46.344Z,8.06
2017-12-21T02:02:51.181Z,8.08
2017-12-21T02:03:55.944Z,8.08
2017-12-21T02:05:00.751Z,7.99
2017-12-21T02:06:05.787Z,7.99
2017-12-21T02:07:10.968Z,7.93
2017-12-21T02:08:17.370Z,7.92
2017-12-21T02:09:22.702Z,7.92
2017-12-21T02:10:27.699Z,7.90
2017-12-21T02:11:32.614Z,8.01
2017-12-21T02:12:37.866Z,8.02
2017-12-21T02:13:44.805Z,8.04
2017-12-21T02:14:49.688Z,8.04
2017-12-21T02:15:55.322Z,7.93
2017-12-21T02:19:19.872Z,7.98
2017-12-21T02:20:24.353Z,7.99
2017-12-21T02:21:28.898Z,7.94
2017-12-21T02:22:34.268Z,8.00
2017-12-21T02:23:39.729Z,8.02
2017-12-21T02:24:44.579Z,7.96
2017-12-21T02:25:50.133Z,7.98
2017-12-21T02:26:54.663Z,8.06
2017-12-21T02:27:59.142Z,7.94
2017-12-21T02:29:03.684Z,7.94
2017-12-21T02:30:08.204Z,7.95
2017-12-21T02:31:12.972Z,8.04
2017-12-21T02:34:01.488Z,7.96
2017-12-21T02:35:07.302Z,7.92
2017-12-21T02:36:13.120Z,8.02
2017-12-21T02:37:18.204Z,8.08
2017-12-21T02:38:22.638Z,8.11
2017-12-21T02:39:27.114Z,8.00
2017-12-21T02:40:31.780Z,8.04
2017-12-21T02:41:36.459Z,8.06
2017-12-21T02:42:40.894Z,8.08
2017-12-21T02:43:45.449Z,8.02
2017-12-21T02:44:50.327Z,8.03
2017-12-21T02:45:54.806Z,8.00
2017-12-21T02:46:59.911Z,8.02
2017-12-21T02:50:10.615Z,8.11
2017-12-21T02:51:14.909Z,8.03
2017-12-21T02:52:19.418Z,8.08
2017-12-21T02:53:23.789Z,8.07
2017-12-21T02:54:29.110Z,8.04
2017-12-21T02:55:33.695Z,8.04
2017-12-21T02:56:39.368Z,8.03
2017-12-21T02:57:43.694Z,8.00
2017-12-21T02:58:49.112Z,8.05
2017-12-21T02:59:53.440Z,8.25
2017-12-21T03:00:58.073Z,8.14
2017-12-21T03:02:02.623Z,8.11
2017-12-21T03:03:07.233Z,8.13
2017-12-21T03:04:11.549Z,8.12
2017-12-21T03:05:15.840Z,8.09
2017-12-21T03:06:21.179Z,8.19
2017-12-21T03:07:42.771Z,8.08
2017-12-21T03:09:00.504Z,7.98
2017-12-21T03:10:05.927Z,8.00
2017-12-21T03:11:10.849Z,8.00
2017-12-21T03:12:15.152Z,8.07
2017-12-21T03:13:19.451Z,7.99
2017-12-21T03:14:23.869Z,7.93
2017-12-21T03:15:28.789Z,7.92
2017-12-21T03:16:34.532Z,7.91
2017-12-21T03:17:39.769Z,7.92
2017-12-21T03:18:44.076Z,7.93
2017-12-21T03:19:48.472Z,7.98
2017-12-21T03:20:53.183Z,8.00
2017-12-21T03:21:57.789Z,8.02
2017-12-21T03:23:02.109Z,8.00
2017-12-21T03:24:06.416Z,7.99
2017-12-21T03:25:10.715Z,7.97
2017-12-21T03:26:15.460Z,8.02
2017-12-21T03:27:19.824Z,7.98
2017-12-21T03:28:24.149Z,8.05
2017-12-21T03:29:28.545Z,8.07
2017-12-21T03:30:33.010Z,8.20
2017-12-21T03:31:37.368Z,8.13
2017-12-21T03:32:41.988Z,8.09
2017-12-21T03:33:46.328Z,8.09
2017-12-21T03:34:50.644Z,8.14
2017-12-21T03:35:54.989Z,8.28
2017-12-21T03:36:59.408Z,8.18
2017-12-21T03:38:03.723Z,8.15
2017-12-21T03:39:25.551Z,8.20
2017-12-21T03:40:30.825Z,8.24
2017-12-21T03:41:35.172Z,8.15
2017-12-21T03:42:39.468Z,8.11
2017-12-21T03:43:44.197Z,8.12
2017-12-21T03:44:48.492Z,8.09
2017-12-21T03:45:53.108Z,8.14
2017-12-21T03:46:57.485Z,8.18
2017-12-21T03:48:01.929Z,8.18
2017-12-21T03:49:07.209Z,8.13
2017-12-21T03:50:19.379Z,8.10
2017-12-21T03:51:26.190Z,8.05
2017-12-21T03:52:30.863Z,8.00
2017-12-21T03:53:35.200Z,8.04
2017-12-21T03:54:40.420Z,8.09
2017-12-21T03:55:44.741Z,8.05
2017-12-21T03:56:49.036Z,8.05
2017-12-21T03:57:53.540Z,8.11
2017-12-21T03:58:57.870Z,8.06
2017-12-21T04:00:04.947Z,8.13
2017-12-21T04:01:09.454Z,8.09
2017-12-21T04:02:14.332Z,8.08
2017-12-21T04:03:18.607Z,8.05
2017-12-21T04:04:23.104Z,8.08
2017-12-21T04:05:29.164Z,8.13
2017-12-21T04:06:33.560Z,8.13
2017-12-21T04:07:37.872Z,8.05
2017-12-21T04:08:42.738Z,8.05
2017-12-21T04:09:47.028Z,8.02
2017-12-21T04:10:52.221Z,8.04
2017-12-21T04:11:56.616Z,8.04
2017-12-21T04:13:01.116Z,8.00
2017-12-21T04:14:05.467Z,8.01
2017-12-21T04:15:10.549Z,8.11
2017-12-21T04:16:14.861Z,8.16
2017-12-21T04:17:19.152Z,8.17
2017-12-21T04:18:23.567Z,8.19
2017-12-21T04:19:28.611Z,8.16
2017-12-21T04:20:33.296Z,8.21
2017-12-21T04:21:37.707Z,8.36
2017-12-21T04:22:42.769Z,8.30
2017-12-21T04:23:47.092Z,8.32
2017-12-21T04:24:51.580Z,8.29
2017-12-21T04:25:56.833Z,8.36
2017-12-21T04:27:01.640Z,8.41
2017-12-21T04:28:05.937Z,8.29
2017-12-21T04:29:10.315Z,8.25
2017-12-21T04:31:18.775Z,8.33
2017-12-21T04:32:23.069Z,8.32
2017-12-21T04:33:28.850Z,8.22
2017-12-21T04:34:33.151Z,8.19
2017-12-21T04:35:37.448Z,8.20
2017-12-21T04:36:41.779Z,8.26
2017-12-21T04:37:46.177Z,8.32
2017-12-21T04:38:50.736Z,8.28
2017-12-21T04:39:55.544Z,8.37
2017-12-21T04:40:59.829Z,8.40
2017-12-21T04:42:04.969Z,8.34
2017-12-21T04:43:11.888Z,8.31
2017-12-21T04:44:20.420Z,8.23
2017-12-21T04:45:26.299Z,8.22
2017-12-21T04:46:30.899Z,8.19
2017-12-21T04:47:35.311Z,8.14
2017-12-21T04:48:39.763Z,8.12
2017-12-21T04:49:44.052Z,8.08
2017-12-21T04:50:48.397Z,8.07
2017-12-21T04:51:53.935Z,8.05
2017-12-21T04:52:58.256Z,8.06
2017-12-21T04:54:02.566Z,8.05
2017-12-21T04:55:07.084Z,8.07
2017-12-21T04:56:11.521Z,8.06
2017-12-21T04:57:19.017Z,8.08
2017-12-21T04:58:23.640Z,8.20
2017-12-21T04:59:27.916Z,8.19
2017-12-21T05:00:33.386Z,8.18
2017-12-21T05:01:37.910Z,8.23
2017-12-21T05:02:42.228Z,8.20
2017-12-21T05:03:46.509Z,8.10
2017-12-21T05:04:51.135Z,8.14
2017-12-21T05:05:55.476Z,8.15
2017-12-21T05:06:59.878Z,8.07
2017-12-21T05:08:04.227Z,8.19
2017-12-21T05:09:09.848Z,8.17
2017-12-21T05:10:14.236Z,8.20
2017-12-21T05:11:18.813Z,8.14
2017-12-21T05:13:53.312Z,8.06
2017-12-21T05:14:57.675Z,7.97
2017-12-21T05:16:02.175Z,7.94
2017-12-21T05:17:06.788Z,7.94
2017-12-21T05:18:11.104Z,7.98
2017-12-21T05:19:15.506Z,8.04
2017-12-21T05:20:20.187Z,8.06
2017-12-21T05:21:24.763Z,8.07
2017-12-21T05:22:29.395Z,8.01
2017-12-21T05:23:33.764Z,8.09
2017-12-21T05:24:38.142Z,8.12
2017-12-21T05:25:43.464Z,8.11
2017-12-21T05:26:47.889Z,8.12
2017-12-21T05:27:52.203Z,8.12
2017-12-21T05:28:56.910Z,8.12
2017-12-21T05:30:01.234Z,8.20
2017-12-21T05:31:08.658Z,8.23
2017-12-21T05:32:13.272Z,8.19
2017-12-21T05:33:17.530Z,8.19
2017-12-21T05:34:21.898Z,8.18
2017-12-21T05:35:26.562Z,8.07
2017-12-21T05:36:30.865Z,8.14
2017-12-21T05:37:35.254Z,8.15
2017-12-21T05:38:40.747Z,8.08
2017-12-21T05:39:45.176Z,8.11
2017-12-21T05:43:41.062Z,8.10
2017-12-21T05:44:45.591Z,8.06
2017-12-21T05:45:51.049Z,8.11
2017-12-21T05:46:55.360Z,8.07
2017-12-21T05:47:59.670Z,8.03
2017-12-21T05:49:04.212Z,8.06
2017-12-21T05:50:08.861Z,8.11
2017-12-21T05:51:13.237Z,8.12
2017-12-21T05:52:17.604Z,8.16
2017-12-21T05:53:21.980Z,8.17
2017-12-21T05:54:26.300Z,8.19
2017-12-21T05:55:30.851Z,8.19
2017-12-21T05:56:35.504Z,8.27
2017-12-21T05:57:40.010Z,8.32
2017-12-21T05:58:44.504Z,8.35
2017-12-21T05:59:48.844Z,8.28
2017-12-21T06:00:53.833Z,8.18
2017-12-21T06:01:58.265Z,8.29
2017-12-21T06:03:03.152Z,8.24
2017-12-21T06:04:07.814Z,8.21
2017-12-21T06:05:12.196Z,8.22
2017-12-21T06:06:23.193Z,8.22
2017-12-21T06:07:27.580Z,8.25
2017-12-21T06:08:36.255Z,8.23
2017-12-21T06:09:40.618Z,8.21
2017-12-21T06:10:44.914Z,8.19
2017-12-21T06:11:49.332Z,8.21
2017-12-21T06:12:53.737Z,8.24
2017-12-21T06:13:58.940Z,8.16
2017-12-21T06:15:05.434Z,8.18
2017-12-21T06:16:10.128Z,8.22
2017-12-21T06:17:14.634Z,8.29
2017-12-21T06:18:19.062Z,8.24
2017-12-21T06:19:23.656Z,8.33
2017-12-21T06:20:28.390Z,8.35
2017-12-21T06:21:33.038Z,8.29
2017-12-21T06:22:37.484Z,8.33
2017-12-21T06:23:41.877Z,8.38
2017-12-21T06:24:46.176Z,8.43
2017-12-21T06:25:50.536Z,8.31
2017-12-21T06:26:54.938Z,8.37
2017-12-21T06:27:59.537Z,8.34
2017-12-21T06:29:03.889Z,8.34
2017-12-21T06:30:08.323Z,8.34
2017-12-21T06:31:13.038Z,8.31
2017-12-21T06:32:17.337Z,8.31
2017-12-21T06:33:21.608Z,8.28
2017-12-21T06:34:26.224Z,8.26
2017-12-21T06:35:30.569Z,8.20
2017-12-21T06:36:34.951Z,8.17
2017-12-21T06:37:39.227Z,8.19
2017-12-21T06:38:43.620Z,8.22
2017-12-21T06:39:47.885Z,8.28
2017-12-21T06:40:52.516Z,8.32
2017-12-21T06:41:57.010Z,8.35
2017-12-21T06:43:01.380Z,8.34
2017-12-21T06:44:05.665Z,8.30
2017-12-21T06:45:10.236Z,8.31
2017-12-21T06:46:17.383Z,8.33
2017-12-21T06:47:22.017Z,8.31
2017-12-21T06:48:26.342Z,8.30
2017-12-21T06:49:30.737Z,8.29
2017-12-21T06:50:35.200Z,8.33
2017-12-21T06:51:39.783Z,8.34
2017-12-21T06:52:44.128Z,8.40
2017-12-21T06:53:48.494Z,8.35
2017-12-21T06:54:52.825Z,8.25
2017-12-21T06:55:57.233Z,8.34
2017-12-21T06:57:01.567Z,8.36
2017-12-21T06:58:05.909Z,8.36
2017-12-21T06:59:10.261Z,8.30
2017-12-21T07:00:25.836Z,8.31
2017-12-21T07:01:30.836Z,8.32
2017-12-21T07:02:35.269Z,8.36
2017-12-21T07:03:40.546Z,8.41
2017-12-21T07:04:44.937Z,8.40
2017-12-21T07:05:49.599Z,8.51
2017-12-21T07:06:54.058Z,8.54
2017-12-21T07:07:58.498Z,8.51
2017-12-21T07:09:02.869Z,8.53
2017-12-21T07:10:07.303Z,8.50
2017-12-21T07:11:11.588Z,8.50
2017-12-21T07:12:16.328Z,8.37
2017-12-21T07:13:20.743Z,8.36
2017-12-21T07:14:25.120Z,8.35
2017-12-21T07:15:36.141Z,8.37
2017-12-21T07:16:41.152Z,8.35
2017-12-21T07:17:45.525Z,8.41
2017-12-21T07:18:50.064Z,8.44
2017-12-21T07:19:54.729Z,8.43
2017-12-21T07:20:59.152Z,8.48
2017-12-21T07:22:03.473Z,8.46
2017-12-21T07:23:07.801Z,8.49
2017-12-21T07:24:14.207Z,8.44
2017-12-21T07:25:19.024Z,8.42
2017-12-21T07:26:23.316Z,8.46
2017-12-21T07:27:27.641Z,8.43
2017-12-21T07:28:31.964Z,8.37
2017-12-21T07:29:36.375Z,8.36
2017-12-21T07:30:41.132Z,8.41
2017-12-21T07:31:45.737Z,8.38
2017-12-21T07:32:50.057Z,8.40
2017-12-21T07:33:54.363Z,8.42
2017-12-21T07:34:58.729Z,8.42
2017-12-21T07:36:03.057Z,8.41
2017-12-21T07:37:07.427Z,8.43
2017-12-21T07:38:12.039Z,8.42
2017-12-21T07:39:16.364Z,8.37
2017-12-21T07:40:22.820Z,8.42
2017-12-21T07:41:27.161Z,8.40
2017-12-21T07:42:31.440Z,8.46
2017-12-21T07:43:35.735Z,8.45
2017-12-21T07:44:41.020Z,8.58
2017-12-21T07:45:45.484Z,8.62
2017-12-21T07:46:49.808Z,8.59
2017-12-21T07:47:54.129Z,8.64
2017-12-21T07:48:58.541Z,8.51
2017-12-21T07:50:02.851Z,8.51
2017-12-21T07:51:07.464Z,8.56
2017-12-21T07:52:11.873Z,8.53
2017-12-21T07:53:16.458Z,8.48
2017-12-21T07:54:21.940Z,8.58
2017-12-21T07:55:29.032Z,8.55
2017-12-21T07:56:34.491Z,8.52
2017-12-21T07:57:40.072Z,8.54
2017-12-21T07:58:44.438Z,8.55
2017-12-21T07:59:48.871Z,8.43
2017-12-21T08:00:53.346Z,8.32
2017-12-21T08:01:57.649Z,8.38
2017-12-21T08:03:01.960Z,8.40
2017-12-21T08:04:06.581Z,8.37
2017-12-21T08:05:10.994Z,8.46
2017-12-21T08:06:15.336Z,8.47
2017-12-21T08:07:19.688Z,8.46
2017-12-21T08:08:24.004Z,8.46
2017-12-21T08:09:28.732Z,8.47
2017-12-21T08:10:33.654Z,8.49
2017-12-21T08:11:38.769Z,8.46
2017-12-21T08:12:43.152Z,8.46
2017-12-21T08:13:47.615Z,8.46
2017-12-21T08:14:51.954Z,8.45
2017-12-21T08:15:56.873Z,8.51
2017-12-21T08:17:01.588Z,8.49
2017-12-21T08:18:05.872Z,8.55
2017-12-21T08:19:10.255Z,8.72
2017-12-21T08:20:14.561Z,8.80
2017-12-21T08:21:18.931Z,8.68
2017-12-21T08:22:23.595Z,8.73
2017-12-21T08:23:28.009Z,8.75
2017-12-21T08:24:33.851Z,8.74
2017-12-21T08:25:38.246Z,8.71
2017-12-21T08:26:43.213Z,8.53
2017-12-21T08:27:47.648Z,8.37
2017-12-21T08:28:52.316Z,8.40
2017-12-21T08:29:56.697Z,8.46
2017-12-21T08:31:01.420Z,8.39
2017-12-21T08:32:05.805Z,8.33
2017-12-21T08:33:10.145Z,8.32
2017-12-21T08:34:14.872Z,8.34
2017-12-21T08:35:19.177Z,8.31
2017-12-21T08:36:23.575Z,8.43
2017-12-21T08:37:27.947Z,8.36
2017-12-21T08:38:33.132Z,8.32
2017-12-21T08:39:37.976Z,8.20
2017-12-21T08:40:43.236Z,8.17
2017-12-21T08:41:48.578Z,8.16
2017-12-21T08:42:53.885Z,8.24
2017-12-21T08:43:58.380Z,8.34
2017-12-21T08:45:04.297Z,8.28
2017-12-21T08:46:08.781Z,8.26
2017-12-21T08:47:13.441Z,8.18
2017-12-21T08:48:17.770Z,8.18
2017-12-21T08:49:22.139Z,8.15
2017-12-21T08:50:26.437Z,8.19
2017-12-21T08:51:31.779Z,8.17
2017-12-21T08:52:36.116Z,8.26
2017-12-21T08:53:40.769Z,8.25
2017-12-21T08:54:45.174Z,8.20
2017-12-21T08:55:49.504Z,8.23
2017-12-21T08:56:53.917Z,8.30
2017-12-21T08:57:58.248Z,8.29
2017-12-21T08:59:02.580Z,8.28
2017-12-21T09:00:14.355Z,8.36
2017-12-21T09:01:18.737Z,8.51
2017-12-21T09:02:23.137Z,8.48
2017-12-21T09:03:28.208Z,8.52
2017-12-21T09:04:33.305Z,8.42
2017-12-21T09:05:37.684Z,8.46
2017-12-21T09:06:43.071Z,8.42
2017-12-21T09:07:47.452Z,8.44
2017-12-21T09:08:52.797Z,8.47
2017-12-21T09:09:57.147Z,8.44
2017-12-21T09:11:01.528Z,8.35
2017-12-21T09:12:05.991Z,8.32
2017-12-21T09:13:10.296Z,8.34
2017-12-21T09:14:14.760Z,8.41
2017-12-21T09:15:19.073Z,8.32
2017-12-21T09:16:27.894Z,8.28
2017-12-21T09:17:33.303Z,8.29
2017-12-21T09:18:38.488Z,8.28
2017-12-21T09:19:42.855Z,8.41
2017-12-21T09:20:47.213Z,8.56
2017-12-21T09:21:51.541Z,8.73
2017-12-21T09:22:55.866Z,8.68
2017-12-21T09:24:00.209Z,8.54
2017-12-21T09:25:05.782Z,8.53
2017-12-21T09:26:10.134Z,8.57
2017-12-21T09:27:14.624Z,8.45
2017-12-21T09:28:18.902Z,8.59
2017-12-21T09:29:23.304Z,8.76
2017-12-21T09:30:28.971Z,8.72
2017-12-21T09:31:36.395Z,8.73
2017-12-21T09:32:41.118Z,8.80
2017-12-21T09:33:46.177Z,8.85
2017-12-21T09:34:50.532Z,8.67
2017-12-21T09:35:55.515Z,8.58
2017-12-21T09:37:00.196Z,8.31
2017-12-21T09:38:04.561Z,8.20
2017-12-21T09:39:08.937Z,8.20
2017-12-21T09:40:13.378Z,8.35
2017-12-21T09:41:17.687Z,8.53
2017-12-21T09:42:22.227Z,8.65
2017-12-21T09:43:26.543Z,8.94
2017-12-21T09:44:31.390Z,9.02
2017-12-21T09:45:35.875Z,8.95
2017-12-21T09:46:40.218Z,8.75
2017-12-21T09:47:44.588Z,8.59
2017-12-21T09:48:49.356Z,8.40
2017-12-21T09:49:53.971Z,8.41
2017-12-21T09:50:58.296Z,8.23
2017-12-21T09:52:02.609Z,8.17
2017-12-21T09:53:07.051Z,8.13
2017-12-21T09:54:11.421Z,8.05
2017-12-21T09:55:16.100Z,8.13
2017-12-21T09:56:20.825Z,8.07
2017-12-21T09:57:25.151Z,8.14
2017-12-21T09:58:30.237Z,8.17
2017-12-21T09:59:34.699Z,8.22
2017-12-21T10:00:39.696Z,8.38
2017-12-21T10:01:44.125Z,8.34
2017-12-21T10:02:48.483Z,8.23
2017-12-21T10:03:52.913Z,8.16
2017-12-21T10:04:57.246Z,8.34
2017-12-21T10:06:02.209Z,8.54
2017-12-21T10:07:06.940Z,8.56
2017-12-21T10:08:14.321Z,8.48
2017-12-21T10:09:18.703Z,8.50
2017-12-21T10:10:23.154Z,8.51
2017-12-21T10:11:27.574Z,8.56
2017-12-21T10:12:32.057Z,8.43
2017-12-21T10:13:36.741Z,8.36
2017-12-21T10:14:41.898Z,8.36
2017-12-21T10:15:46.504Z,8.26
2017-12-21T10:16:50.863Z,8.20
2017-12-21T10:17:55.378Z,8.25
2017-12-21T10:18:59.713Z,8.26
2017-12-21T10:20:04.509Z,8.07
2017-12-21T10:21:15.577Z,7.99
2017-12-21T10:22:19.969Z,8.07
2017-12-21T10:23:24.400Z,8.14
2017-12-21T10:24:30.464Z,8.18
2017-12-21T10:25:34.916Z,8.24
2017-12-21T10:26:40.461Z,8.32
2017-12-21T10:27:44.862Z,8.52
2017-12-21T10:28:50.831Z,8.49
2017-12-21T10:29:55.328Z,8.17
2017-12-21T10:31:00.167Z,8.07
2017-12-21T10:32:04.661Z,8.10
2017-12-21T10:33:09.124Z,8.05
2017-12-21T10:34:13.540Z,8.01
2017-12-21T10:35:17.904Z,8.07
2017-12-21T10:36:22.271Z,8.07
2017-12-21T10:37:26.679Z,8.08
2017-12-21T10:38:31.506Z,8.21
2017-12-21T10:39:36.018Z,8.31
2017-12-21T10:40:41.168Z,8.35
2017-12-21T10:41:45.490Z,8.30
2017-12-21T10:42:50.261Z,8.17
2017-12-21T10:43:54.638Z,8.20
2017-12-21T10:44:59.065Z,8.20
2017-12-21T10:46:03.518Z,8.31
2017-12-21T10:47:07.941Z,8.47
2017-12-21T10:48:12.442Z,8.75
2017-12-21T10:49:17.167Z,8.77
2017-12-21T10:50:21.778Z,8.85
2017-12-21T10:51:26.281Z,8.82
2017-12-21T10:52:31.621Z,8.86
2017-12-21T10:53:36.115Z,8.95
2017-12-21T10:54:40.605Z,8.95
2017-12-21T10:55:45.225Z,8.92
2017-12-21T10:56:50.006Z,8.97
2017-12-21T10:57:54.650Z,9.03
2017-12-21T10:58:59.179Z,9.11
2017-12-21T11:00:05.228Z,9.23
2017-12-21T11:01:09.998Z,9.28
2017-12-21T11:02:14.321Z,9.20
2017-12-21T11:03:18.624Z,9.28
2017-12-21T11:04:22.994Z,9.29
2017-12-21T11:05:27.347Z,9.19
2017-12-21T11:06:32.405Z,9.26
2017-12-21T11:07:37.162Z,9.31
2017-12-21T11:08:41.751Z,9.44
2017-12-21T11:09:46.113Z,9.26
2017-12-21T11:10:50.493Z,9.02
2017-12-21T11:11:54.872Z,9.02
2017-12-21T11:12:59.340Z,9.02
2017-12-21T11:14:04.036Z,8.97
2017-12-21T11:15:08.623Z,9.05
2017-12-21T11:16:13.260Z,9.18
2017-12-21T11:17:17.659Z,9.27
2017-12-21T11:18:22.250Z,9.28
2017-12-21T11:19:26.577Z,9.27
2017-12-21T11:20:36.245Z,9.39
2017-12-21T11:21:43.381Z,9.46
2017-12-21T11:22:47.721Z,9.48
2017-12-21T11:23:52.696Z,9.46
2017-12-21T11:24:57.076Z,9.31
2017-12-21T11:26:01.504Z,9.23
2017-12-21T11:27:05.870Z,9.27
2017-12-21T11:28:10.319Z,9.34
2017-12-21T11:29:14.682Z,9.40
2017-12-21T11:30:19.304Z,9.38
2017-12-21T11:31:24.115Z,9.33
2017-12-21T11:32:28.873Z,9.28
2017-12-21T11:33:33.319Z,9.22
2017-12-21T11:34:37.696Z,9.24
2017-12-21T11:35:43.014Z,9.07
2017-12-21T11:36:47.690Z,8.74
2017-12-21T11:37:52.082Z,8.53
2017-12-21T11:38:56.537Z,8.58
2017-12-21T11:40:00.906Z,8.49
2017-12-21T11:41:05.539Z,8.32
2017-12-21T11:42:09.876Z,8.24
2017-12-21T11:43:14.544Z,8.28
2017-12-21T11:44:19.003Z,8.19
2017-12-21T11:45:23.700Z,8.19
2017-12-21T11:46:28.118Z,8.18
2017-12-21T11:47:33.729Z,8.19
2017-12-21T11:48:39.004Z,8.10
2017-12-21T11:49:43.734Z,8.04
2017-12-21T11:50:48.545Z,7.93
2017-12-21T11:51:53.008Z,8.07
2017-12-21T11:52:57.502Z,8.12
2017-12-21T11:54:01.979Z,8.26
2017-12-21T11:55:06.429Z,8.39
2017-12-21T11:56:16.468Z,8.41
2017-12-21T11:57:21.115Z,8.39
2017-12-21T11:58:25.610Z,8.34
2017-12-21T11:59:30.385Z,8.36
2017-12-21T12:00:35.011Z,8.22
2017-12-21T12:01:39.581Z,8.13
2017-12-21T12:02:44.374Z,8.08
2017-12-21T12:03:48.784Z,8.02
2017-12-21T12:04:53.144Z,8.00
2017-12-21T12:05:57.540Z,7.93
2017-12-21T12:07:02.346Z,8.06
2017-12-21T12:09:17.721Z,8.06
2017-12-21T12:10:22.160Z,8.13
2017-12-21T12:11:26.733Z,8.26
2017-12-21T12:12:31.823Z,8.27
2017-12-21T12:13:36.442Z,8.25
2017-12-21T12:14:41.654Z,8.16
2017-12-21T12:15:46.296Z,8.11
2017-12-21T12:16:50.892Z,8.17
2017-12-21T12:17:55.356Z,8.27
2017-12-21T12:18:59.757Z,8.20
2017-12-21T12:20:04.396Z,8.20
2017-12-21T12:21:09.512Z,8.10
2017-12-21T12:22:14.012Z,8.10
2017-12-21T12:23:18.613Z,8.11
2017-12-21T12:24:23.275Z,8.13
2017-12-21T12:25:27.942Z,8.25
2017-12-21T12:26:33.327Z,8.25
2017-12-21T12:27:38.526Z,8.17
2017-12-21T12:28:42.952Z,8.16
2017-12-21T12:29:47.355Z,8.16
2017-12-21T12:30:52.290Z,8.08
2017-12-21T12:31:56.681Z,8.25
2017-12-21T12:33:01.061Z,8.44
2017-12-21T12:34:05.838Z,8.50
2017-12-21T12:35:10.265Z,8.33
2017-12-21T12:36:14.638Z,8.20
2017-12-21T12:37:19.120Z,8.23
2017-12-21T12:38:23.494Z,8.22
2017-12-21T12:39:27.998Z,8.34
2017-12-21T12:40:33.349Z,8.21
2017-12-21T12:41:38.762Z,8.12
2017-12-21T12:42:43.230Z,8.19
2017-12-21T12:43:47.617Z,8.16
2017-12-21T12:44:52.073Z,8.10
2017-12-21T12:45:56.657Z,8.12
2017-12-21T12:47:01.310Z,8.08
2017-12-21T12:48:05.713Z,8.07
2017-12-21T12:49:10.152Z,8.05
2017-12-21T12:50:14.619Z,8.09
2017-12-21T12:51:18.951Z,8.15
2017-12-21T12:52:23.563Z,8.07
2017-12-21T12:53:28.008Z,8.06
2017-12-21T12:54:33.086Z,8.02
2017-12-21T12:55:37.556Z,8.08
2017-12-21T12:56:42.843Z,7.94
2017-12-21T12:57:47.259Z,7.96
2017-12-21T12:58:52.010Z,7.98
2017-12-21T12:59:56.402Z,7.87
2017-12-21T13:01:01.379Z,7.78
2017-12-21T13:02:05.749Z,7.75
2017-12-21T13:03:10.217Z,7.77
2017-12-21T13:04:14.637Z,7.72
2017-12-21T13:05:19.366Z,7.73
2017-12-21T13:06:23.793Z,7.69
2017-12-21T13:07:28.306Z,7.66
2017-12-21T13:08:33.587Z,7.74
2017-12-21T13:09:38.041Z,7.83
2017-12-21T13:10:42.482Z,7.80
2017-12-21T13:11:47.930Z,7.75
2017-12-21T13:12:52.403Z,7.86
2017-12-21T13:13:56.867Z,7.87
2017-12-21T13:15:02.910Z,7.84
2017-12-21T13:16:13.600Z,7.82
2017-12-21T13:17:17.982Z,7.92
2017-12-21T13:18:22.488Z,8.08
2017-12-21T13:19:27.047Z,8.30
2017-12-21T13:20:31.619Z,8.54
2017-12-21T13:21:36.086Z,8.54
2017-12-21T13:22:41.668Z,8.26
2017-12-21T13:23:46.031Z,8.16
2017-12-21T13:24:50.372Z,8.08
2017-12-21T13:25:54.905Z,8.08
2017-12-21T13:26:59.485Z,8.10
2017-12-21T13:28:04.046Z,8.01
2017-12-21T13:29:08.508Z,7.97
2017-12-21T13:30:14.746Z,8.02
2017-12-21T13:31:19.263Z,8.16
2017-12-21T13:32:23.690Z,8.19
2017-12-21T13:33:28.188Z,8.14
2017-12-21T13:34:33.065Z,8.07
2017-12-21T13:35:39.225Z,8.00
2017-12-21T13:36:44.037Z,8.08
2017-12-21T13:37:48.359Z,8.00
2017-12-21T13:38:52.990Z,7.97
2017-12-21T13:39:57.415Z,8.04
2017-12-21T13:41:02.205Z,8.01
2017-12-21T13:42:06.641Z,7.87
2017-12-21T13:43:11.175Z,7.78
2017-12-21T13:44:15.642Z,7.77
2017-12-21T13:45:20.080Z,7.79
2017-12-21T13:46:24.855Z,7.93
2017-12-21T13:47:29.772Z,8.09
2017-12-21T13:48:35.201Z,8.07
2017-12-21T13:49:40.412Z,7.96
2017-12-21T13:50:44.875Z,7.77
2017-12-21T13:51:49.302Z,7.83
2017-12-21T13:52:53.794Z,7.68
2017-12-21T13:53:58.546Z,7.61
2017-12-21T13:55:02.967Z,7.73
2017-12-21T13:56:18.035Z,7.76
2017-12-21T13:57:22.583Z,7.90
2017-12-21T13:58:27.040Z,8.10
2017-12-21T13:59:31.496Z,8.22
2017-12-21T14:00:36.721Z,8.33
2017-12-21T14:01:42.377Z,8.22
2017-12-21T14:02:46.955Z,8.23
2017-12-21T14:03:52.362Z,8.17
2017-12-21T14:04:56.832Z,8.17
2017-12-21T14:06:01.479Z,8.30
2017-12-21T14:07:06.180Z,8.35
2017-12-21T14:08:11.290Z,8.25
2017-12-21T14:09:15.933Z,8.16
2017-12-21T14:10:20.461Z,8.36
2017-12-21T14:11:24.891Z,8.43
2017-12-21T14:12:31.174Z,8.40
2017-12-21T14:13:35.686Z,8.18
2017-12-21T14:14:40.687Z,8.12
2017-12-21T14:15:45.328Z,8.26
2017-12-21T14:16:49.700Z,8.42
2017-12-21T14:17:54.145Z,8.36
2017-12-21T14:18:58.646Z,8.25
2017-12-21T14:20:03.446Z,8.25
2017-12-21T14:21:07.893Z,8.22
2017-12-21T14:22:12.389Z,8.09
2017-12-21T14:23:16.782Z,8.17
2017-12-21T14:24:21.505Z,8.03
2017-12-21T14:25:26.019Z,7.96
2017-12-21T14:26:30.977Z,7.83
2017-12-21T14:27:35.437Z,7.71
2017-12-21T14:28:40.565Z,7.75
2017-12-21T14:29:45.591Z,7.67
2017-12-21T14:30:50.331Z,7.66
2017-12-21T14:31:55.269Z,7.64
2017-12-21T14:33:00.215Z,7.55
2017-12-21T14:34:04.666Z,7.60
2017-12-21T14:35:09.260Z,7.50
2017-12-21T14:36:13.763Z,7.57
2017-12-21T14:37:18.240Z,7.58
2017-12-21T14:38:23.040Z,7.55
2017-12-21T14:39:28.699Z,7.53